Observation data for Plainview on 01/20/2019      Previous  Date  Next       Current Mesonet Observations  Soil Data  Daily Summary Page  Observations in Plain Language
KPVS 200600Z 14003KT M01/M05 A3027 RMK A01 T10101048  RH  076%=      5-min Rain = 0
KPVS 200605Z 16003KT M01/M05 A3028 RMK A01 T10121047  RH  078%=      5-min Rain = 0
KPVS 200610Z 14004KT M01/M05 A3027 RMK A01 T10111046  RH  078%=      5-min Rain = 0
KPVS 200615Z 15005KT M01/M05 A3027 RMK A01 T10101045  RH  078%=      5-min Rain = 0
KPVS 200620Z 15005KT M01/M04 A3027 RMK A01 T10101044  RH  079%=      5-min Rain = 0
KPVS 200625Z 16005KT M01/M04 A3028 RMK A01 T10081043  RH  078%=      5-min Rain = 0
KPVS 200630Z 16005KT M01/M04 A3027 RMK A01 T10091044  RH  078%=      5-min Rain = 0
KPVS 200635Z 16006KT M01/M04 A3027 RMK A01 T10101044  RH  079%=      5-min Rain = 0
KPVS 200640Z 16005KT M01/M05 A3027 RMK A01 T10131046  RH  079%=      5-min Rain = 0
KPVS 200645Z 16007KT M01/M05 A3027 RMK A01 T10131045  RH  080%=      5-min Rain = 0
KPVS 200650Z 16007KT M01/M05 A3027 RMK A01 T10131045  RH  080%=      5-min Rain = 0
KPVS 200655Z 16007KT M01/M04 A3026 RMK A01 T10131044  RH  080%=      5-min Rain = 0
KPVS 200700Z 16007KT M01/M04 A3027 RMK A01 T10131044  RH  080%=      5-min Rain = 0
KPVS 200705Z 16007KT M01/M04 A3027 RMK A01 T10121044  RH  080%=      5-min Rain = 0
KPVS 200710Z 16007KT M01/M04 A3027 RMK A01 T10121043  RH  080%=      5-min Rain = 0
KPVS 200715Z 16007KT M01/M04 A3026 RMK A01 T10111043  RH  080%=      5-min Rain = 0
KPVS 200720Z 16006KT M01/M04 A3027 RMK A01 T10111043  RH  080%=      5-min Rain = 0
KPVS 200725Z 16005KT M01/M05 A3027 RMK A01 T10131045  RH  080%=      5-min Rain = 0
KPVS 200730Z 17005KT M02/M05 A3027 RMK A01 T10161047  RH  080%=      5-min Rain = 0
KPVS 200735Z 17004KT M02/M05 A3027 RMK A01 T10181048  RH  081%=      5-min Rain = 0
KPVS 200740Z 17004KT M02/M05 A3026 RMK A01 T10201050  RH  081%=      5-min Rain = 0
KPVS 200745Z 16005KT M02/M05 A3027 RMK A01 T10221051  RH  082%=      5-min Rain = 0
KPVS 200750Z 18005KT M02/M05 A3026 RMK A01 T10241051  RH  082%=      5-min Rain = 0
KPVS 200755Z 18005KT M03/M05 A3026 RMK A01 T10251052  RH  083%=      5-min Rain = 0
KPVS 200800Z 18005KT M03/M05 A3026 RMK A01 T10261052  RH  083%=      5-min Rain = 0
KPVS 200805Z 18004KT M03/M05 A3026 RMK A01 T10271052  RH  084%=      5-min Rain = 0
KPVS 200810Z 19005KT M03/M05 A3026 RMK A01 T10271052  RH  084%=      5-min Rain = 0
KPVS 200815Z 17005KT M03/M05 A3026 RMK A01 T10271052  RH  084%=      5-min Rain = 0
KPVS 200820Z 18006KT M03/M05 A3027 RMK A01 T10271051  RH  084%=      5-min Rain = 0
KPVS 200825Z 17006KT M03/M05 A3027 RMK A01 T10271052  RH  084%=      5-min Rain = 0
KPVS 200830Z 17006KT M03/M05 A3027 RMK A01 T10271051  RH  084%=      5-min Rain = 0
KPVS 200835Z 17006KT M03/M05 A3027 RMK A01 T10261051  RH  084%=      5-min Rain = 0
KPVS 200840Z 17007KT M03/M05 A3027 RMK A01 T10261051  RH  084%=      5-min Rain = 0
KPVS 200845Z 18006KT M03/M05 A3027 RMK A01 T10271052  RH  084%=      5-min Rain = 0
KPVS 200850Z 18006KT M03/M05 A3027 RMK A01 T10261049  RH  085%=      5-min Rain = 0
KPVS 200855Z 18006KT M03/M05 A3027 RMK A01 T10261049  RH  085%=      5-min Rain = 0
KPVS 200900Z 19006KT M03/M05 A3027 RMK A01 T10281051  RH  085%=      5-min Rain = 0
KPVS 200905Z 19006KT M03/M05 A3027 RMK A01 T10301052  RH  086%=      5-min Rain = 0
KPVS 200910Z 19007KT M03/M05 A3027 RMK A01 T10311052  RH  086%=      5-min Rain = 0
KPVS 200915Z 19007KT M03/M05 A3027 RMK A01 T10311052  RH  086%=      5-min Rain = 0
KPVS 200920Z 19007KT M03/M05 A3027 RMK A01 T10311053  RH  086%=      5-min Rain = 0
KPVS 200925Z 19007KT M03/M05 A3027 RMK A01 T10321053  RH  086%=      5-min Rain = 0
KPVS 200930Z 19007KT M03/M05 A3027 RMK A01 T10311053  RH  086%=      5-min Rain = 0
KPVS 200935Z 19007KT M03/M05 A3027 RMK A01 T10301052  RH  086%=      5-min Rain = 0
KPVS 200940Z 18007KT M03/M05 A3026 RMK A01 T10291053  RH  085%=      5-min Rain = 0
KPVS 200945Z 18006KT M03/M05 A3026 RMK A01 T10291053  RH  084%=      5-min Rain = 0
KPVS 200950Z 18006KT M03/M05 A3026 RMK A01 T10291054  RH  084%=      5-min Rain = 0
KPVS 200955Z 16007KT M03/M05 A3026 RMK A01 T10291054  RH  084%=      5-min Rain = 0
KPVS 201000Z 17006KT M03/M06 A3026 RMK A01 T10311055  RH  084%=      5-min Rain = 0
KPVS 201005Z 17007KT M03/M06 A3026 RMK A01 T10331056  RH  085%=      5-min Rain = 0
KPVS 201010Z 17006KT M04/M06 A3026 RMK A01 T10351056  RH  086%=      5-min Rain = 0
KPVS 201015Z 17006KT M04/M06 A3025 RMK A01 T10351056  RH  086%=      5-min Rain = 0
KPVS 201020Z 17006KT M04/M06 A3025 RMK A01 T10351058  RH  086%=      5-min Rain = 0
KPVS 201025Z 17007KT M04/M06 A3025 RMK A01 T10361059  RH  085%=      5-min Rain = 0
KPVS 201030Z 17006KT M04/M06 A3025 RMK A01 T10371060  RH  085%=      5-min Rain = 0
KPVS 201035Z 17006KT M04/M06 A3025 RMK A01 T10381061  RH  085%=      5-min Rain = 0
KPVS 201040Z 17006KT M04/M06 A3025 RMK A01 T10391062  RH  085%=      5-min Rain = 0
KPVS 201045Z 17006KT M04/M06 A3025 RMK A01 T10391062  RH  085%=      5-min Rain = 0
KPVS 201050Z 17006KT M04/M06 A3025 RMK A01 T10391063  RH  085%=      5-min Rain = 0
KPVS 201055Z 17007KT M04/M06 A3025 RMK A01 T10401063  RH  085%=      5-min Rain = 0
KPVS 201100Z 17007KT M04/M06 A3024 RMK A01 T10391063  RH  085%=      5-min Rain = 0
KPVS 201105Z 18008KT M04/M06 A3024 RMK A01 T10381062  RH  084%=      5-min Rain = 0
KPVS 201110Z 18008KT M04/M06 A3024 RMK A01 T10361062  RH  083%=      5-min Rain = 0
KPVS 201115Z 18007KT M04/M06 A3024 RMK A01 T10351062  RH  083%=      5-min Rain = 0
KPVS 201120Z 18007KT M03/M06 A3024 RMK A01 T10341062  RH  082%=      5-min Rain = 0
KPVS 201125Z 19007KT M04/M06 A3023 RMK A01 T10351064  RH  082%=      5-min Rain = 0
KPVS 201130Z 19008KT M04/M06 A3023 RMK A01 T10371064  RH  083%=      5-min Rain = 0
KPVS 201135Z 19007KT M04/M06 A3023 RMK A01 T10391064  RH  084%=      5-min Rain = 0
KPVS 201140Z 19007KT M04/M06 A3023 RMK A01 T10391064  RH  083%=      5-min Rain = 0
KPVS 201145Z 19007KT M04/M07 A3023 RMK A01 T10391065  RH  083%=      5-min Rain = 0
KPVS 201150Z 19007KT M04/M07 A3022 RMK A01 T10401066  RH  083%=      5-min Rain = 0
KPVS 201155Z 18007KT M04/M07 A3022 RMK A01 T10411066  RH  083%=      5-min Rain = 0
KPVS 201200Z 18006G11KT M04/M07 A3022 RMK A01 T10411067  RH  083%=      5-min Rain = 0
KPVS 201205Z 19007KT M04/M07 A3022 RMK A01 T10401068  RH  082%=      5-min Rain = 0
KPVS 201210Z 19006KT M04/M07 A3022 RMK A01 T10411068  RH  082%=      5-min Rain = 0
KPVS 201215Z 18006KT M04/M07 A3022 RMK A01 T10421069  RH  082%=      5-min Rain = 0
KPVS 201220Z 18007KT M04/M07 A3022 RMK A01 T10421069  RH  082%=      5-min Rain = 0
KPVS 201225Z 18007KT M04/M07 A3021 RMK A01 T10421069  RH  082%=      5-min Rain = 0
KPVS 201230Z 19007KT M04/M07 A3021 RMK A01 T10421069  RH  082%=      5-min Rain = 0
KPVS 201235Z 19007KT M04/M07 A3022 RMK A01 T10431070  RH  083%=      5-min Rain = 0
KPVS 201240Z 19006KT M04/M07 A3022 RMK A01 T10441070  RH  083%=      5-min Rain = 0
KPVS 201245Z 19007KT M05/M07 A3022 RMK A01 T10451070  RH  084%=      5-min Rain = 0
KPVS 201250Z 20007KT M05/M07 A3022 RMK A01 T10451069  RH  084%=      5-min Rain = 0
KPVS 201255Z 19008KT M04/M07 A3022 RMK A01 T10441068  RH  084%=      5-min Rain = 0
KPVS 201300Z 20008KT M04/M07 A3022 RMK A01 T10431068  RH  084%=      5-min Rain = 0
KPVS 201305Z 20007KT M04/M07 A3022 RMK A01 T10431067  RH  084%=      5-min Rain = 0
KPVS 201310Z 20006KT M04/M07 A3022 RMK A01 T10411066  RH  084%=      5-min Rain = 0
KPVS 201315Z 21006KT M04/M07 A3022 RMK A01 T10421066  RH  084%=      5-min Rain = 0
KPVS 201320Z 21006KT M04/M07 A3022 RMK A01 T10421066  RH  085%=      5-min Rain = 0
KPVS 201325Z 21006KT M04/M07 A3022 RMK A01 T10421066  RH  085%=      5-min Rain = 0
KPVS 201330Z 21006KT M04/M07 A3022 RMK A01 T10421065  RH  085%=      5-min Rain = 0
KPVS 201335Z 21006KT M04/M07 A3022 RMK A01 T10421065  RH  085%=      5-min Rain = 0
KPVS 201340Z 21006KT M04/M06 A3022 RMK A01 T10421064  RH  086%=      5-min Rain = 0
KPVS 201345Z 21006KT M04/M06 A3022 RMK A01 T10431064  RH  086%=      5-min Rain = 0
KPVS 201350Z 21006KT M04/M06 A3022 RMK A01 T10431064  RH  087%=      5-min Rain = 0
KPVS 201355Z 21006KT M04/M06 A3022 RMK A01 T10441064  RH  087%=      5-min Rain = 0
KPVS 201400Z 20006KT M04/M06 A3022 RMK A01 T10441063  RH  087%=      5-min Rain = 0
KPVS 201405Z 20006KT M04/M06 A3022 RMK A01 T10441063  RH  088%=      5-min Rain = 0
KPVS 201410Z 20005KT M04/M06 A3022 RMK A01 T10431062  RH  088%=      5-min Rain = 0
KPVS 201415Z 21006KT M04/M06 A3022 RMK A01 T10421060  RH  088%=      5-min Rain = 0
KPVS 201420Z 21007KT M04/M06 A3023 RMK A01 T10401059  RH  088%=      5-min Rain = 0
KPVS 201425Z 21007KT M04/M06 A3023 RMK A01 T10381058  RH  087%=      5-min Rain = 0
KPVS 201430Z 21006KT M04/M06 A3023 RMK A01 T10371058  RH  086%=      5-min Rain = 0
KPVS 201435Z 20006KT M04/M06 A3023 RMK A01 T10351057  RH  086%=      5-min Rain = 0
KPVS 201440Z 20007KT M03/M06 A3023 RMK A01 T10331055  RH  086%=      5-min Rain = 0
KPVS 201445Z 20007KT M03/M05 A3023 RMK A01 T10291053  RH  084%=      5-min Rain = 0
KPVS 201450Z 20007KT M03/M05 A3023 RMK A01 T10271053  RH  083%=      5-min Rain = 0
KPVS 201455Z 20007KT M03/M05 A3022 RMK A01 T10261053  RH  083%=      5-min Rain = 0
KPVS 201500Z 20007KT M03/M05 A3022 RMK A01 T10251052  RH  083%=      5-min Rain = 0
KPVS 201505Z 20007KT M02/M05 A3022 RMK A01 T10241051  RH  083%=      5-min Rain = 0
KPVS 201510Z 20007KT M02/M05 A3022 RMK A01 T10221049  RH  083%=      5-min Rain = 0
KPVS 201515Z 20007KT M02/M05 A3023 RMK A01 T10201047  RH  083%=      5-min Rain = 0
KPVS 201520Z 21008KT M02/M04 A3023 RMK A01 T10161044  RH  082%=      5-min Rain = 0
KPVS 201525Z 21009G14KT M01/M04 A3023 RMK A01 T10111041  RH  081%=      5-min Rain = 0
KPVS 201530Z 20010KT M01/M04 A3022 RMK A01 T10061039  RH  079%=      5-min Rain = 0
KPVS 201535Z 21011KT M00/M04 A3022 RMK A01 T10021037  RH  078%=      5-min Rain = 0
KPVS 201540Z 21010G15KT 00/M04 A3022 RMK A01 T00011035  RH  078%=      5-min Rain = 0
KPVS 201545Z 21011G16KT 01/M03 A3022 RMK A01 T00061032  RH  076%=      5-min Rain = 0
KPVS 201550Z 21010KT 01/M03 A3022 RMK A01 T00121029  RH  075%=      5-min Rain = 0
KPVS 201555Z 20011G16KT 02/M03 A3021 RMK A01 T00171026  RH  074%=      5-min Rain = 0
KPVS 201600Z 20012G18KT 02/M02 A3021 RMK A01 T00241024  RH  072%=      5-min Rain = 0
KPVS 201605Z 20013G19KT 03/M02 A3021 RMK A01 T00291024  RH  069%=      5-min Rain = 0
KPVS 201610Z 20015G20KT 03/M03 A3021 RMK A01 T00301027  RH  067%=      5-min Rain = 0
KPVS 201615Z 20012G17KT 03/M03 A3021 RMK A01 T00301026  RH  068%=      5-min Rain = 0
KPVS 201620Z 20013G18KT 03/M02 A3021 RMK A01 T00341024  RH  067%=      5-min Rain = 0
KPVS 201625Z 20015G22KT 04/M03 A302 RMK A01 T00371025  RH  065%=      5-min Rain = 0
KPVS 201630Z 20014G19KT 04/M02 A302 RMK A01 T00371023  RH  066%=      5-min Rain = 0
KPVS 201635Z 20011G17KT 04/M02 A302 RMK A01 T00401022  RH  065%=      5-min Rain = 0
KPVS 201640Z 20012KT 04/M02 A302 RMK A01 T00411021  RH  065%=      5-min Rain = 0
KPVS 201645Z 20010G16KT 05/M02 A302 RMK A01 T00461018  RH  064%=      5-min Rain = 0
KPVS 201650Z 20014G19KT 05/M02 A302 RMK A01 T00511020  RH  061%=      5-min Rain = 0
KPVS 201655Z 20013G18KT 06/M02 A302 RMK A01 T00551018  RH  060%=      5-min Rain = 0
KPVS 201700Z 21015KT 06/M02 A3019 RMK A01 T00571020  RH  058%=      5-min Rain = 0
KPVS 201705Z 21015KT 06/M02 A3019 RMK A01 T00571020  RH  058%=      5-min Rain = 0
KPVS 201710Z 21013G18KT 06/M02 A3019 RMK A01 T00601019  RH  057%=      5-min Rain = 0
KPVS 201715Z 21015G20KT 07/M02 A3019 RMK A01 T00651018  RH  056%=      5-min Rain = 0
KPVS 201720Z 21013G19KT 07/M02 A3019 RMK A01 T00681018  RH  055%=      5-min Rain = 0
KPVS 201725Z 21014KT 07/M02 A3019 RMK A01 T00721018  RH  054%=      5-min Rain = 0
KPVS 201730Z 21014G19KT 07/M02 A3019 RMK A01 T00741018  RH  053%=      5-min Rain = 0
KPVS 201735Z 21015G21KT 07/M02 A3018 RMK A01 T00741018  RH  052%=      5-min Rain = 0
KPVS 201740Z 21014G20KT 08/M02 A3018 RMK A01 T00771019  RH  051%=      5-min Rain = 0
KPVS 201745Z 21015KT 08/M02 A3018 RMK A01 T00791019  RH  051%=      5-min Rain = 0
KPVS 201750Z 21014KT 08/M02 A3018 RMK A01 T00831017  RH  050%=      5-min Rain = 0
KPVS 201755Z 22014KT 09/M02 A3017 RMK A01 T00881018  RH  048%=      5-min Rain = 0
KPVS 201800Z 21014G20KT 09/M02 A3017 RMK A01 T00911019  RH  047%=      5-min Rain = 0
KPVS 201805Z 21014KT 09/M02 A3017 RMK A01 T00941020  RH  045%=      5-min Rain = 0
KPVS 201810Z 21015KT 10/M02 A3016 RMK A01 T00971021  RH  044%=      5-min Rain = 0
KPVS 201815Z 22014G20KT 10/M02 A3016 RMK A01 T01011021  RH  043%=      5-min Rain = 0
KPVS 201820Z 21014KT 10/M02 A3016 RMK A01 T01021022  RH  042%=      5-min Rain = 0
KPVS 201825Z 22014G19KT 10/M02 A3015 RMK A01 T01021024  RH  042%=      5-min Rain = 0
KPVS 201830Z 22012G19KT 11/M02 A3015 RMK A01 T01061024  RH  041%=      5-min Rain = 0
KPVS 201835Z 22015KT 11/M03 A3015 RMK A01 T01091025  RH  040%=      5-min Rain = 0
KPVS 201840Z 22014KT 11/M03 A3015 RMK A01 T01101026  RH  039%=      5-min Rain = 0
KPVS 201845Z 22013G18KT 11/M03 A3014 RMK A01 T01131025  RH  038%=      5-min Rain = 0
KPVS 201850Z 22014G20KT 12/M03 A3014 RMK A01 T01151027  RH  037%=      5-min Rain = 0
KPVS 201855Z 23013KT 12/M03 A3013 RMK A01 T01161027  RH  037%=      5-min Rain = 0
KPVS 201900Z 22013G18KT 12/M03 A3013 RMK A01 T01191027  RH  036%=      5-min Rain = 0
KPVS 201905Z 22014G21KT 12/M03 A3012 RMK A01 T01201027  RH  036%=      5-min Rain = 0
KPVS 201910Z 23014G19KT 12/M03 A3012 RMK A01 T01231027  RH  035%=      5-min Rain = 0
KPVS 201915Z 22013G19KT 13/M03 A3011 RMK A01 T01261027  RH  035%=      5-min Rain = 0
KPVS 201920Z 24013G18KT 12/M03 A3011 RMK A01 T01241029  RH  035%=      5-min Rain = 0
KPVS 201925Z 22013G18KT 13/M03 A3011 RMK A01 T01281025  RH  035%=      5-min Rain = 0
KPVS 201930Z 22013G18KT 13/M03 A301 RMK A01 T01281027  RH  034%=      5-min Rain = 0
KPVS 201935Z 22014G19KT 13/M03 A3009 RMK A01 T01281030  RH  034%=      5-min Rain = 0
KPVS 201940Z 23015KT 13/M03 A3009 RMK A01 T01291031  RH  033%=      5-min Rain = 0
KPVS 201945Z 22015G20KT 13/M03 A3009 RMK A01 T01321033  RH  032%=      5-min Rain = 0
KPVS 201950Z 23014G20KT 13/M03 A3009 RMK A01 T01331032  RH  032%=      5-min Rain = 0
KPVS 201955Z 24011G16KT 13/M03 A3009 RMK A01 T01341029  RH  032%=      5-min Rain = 0
KPVS 202000Z 23011KT 14/M03 A3009 RMK A01 T01361030  RH  032%=      5-min Rain = 0
KPVS 202005Z 22013G19KT 14/M03 A3008 RMK A01 T01401031  RH  031%=      5-min Rain = 0
KPVS 202010Z 22014G21KT 14/M03 A3008 RMK A01 T01441033  RH  030%=      5-min Rain = 0
KPVS 202015Z 22014G19KT 15/M03 A3008 RMK A01 T01451034  RH  029%=      5-min Rain = 0
KPVS 202020Z 23013G20KT 15/M03 A3007 RMK A01 T01461034  RH  029%=      5-min Rain = 0
KPVS 202025Z 24014G20KT 15/M03 A3007 RMK A01 T01491034  RH  028%=      5-min Rain = 0
KPVS 202030Z 22014G20KT 15/M04 A3007 RMK A01 T01501036  RH  028%=      5-min Rain = 0
KPVS 202035Z 23015G22KT 15/M04 A3007 RMK A01 T01481037  RH  028%=      5-min Rain = 0
KPVS 202040Z 23014G19KT 15/M04 A3007 RMK A01 T01491035  RH  028%=      5-min Rain = 0
KPVS 202045Z 23014G19KT 15/M03 A3006 RMK A01 T01521033  RH  028%=      5-min Rain = 0
KPVS 202050Z 24014G22KT 15/M03 A3006 RMK A01 T01541033  RH  028%=      5-min Rain = 0
KPVS 202055Z 23015G23KT 16/M03 A3005 RMK A01 T01571033  RH  027%=      5-min Rain = 0
KPVS 202100Z 23013G18KT 16/M03 A3005 RMK A01 T01561034  RH  027%=      5-min Rain = 0
KPVS 202105Z 24014KT 16/M03 A3005 RMK A01 T01601032  RH  027%=      5-min Rain = 0
KPVS 202110Z 22014G22KT 17/M03 A3004 RMK A01 T01661031  RH  026%=      5-min Rain = 0
KPVS 202115Z 23013G18KT 17/M03 A3004 RMK A01 T01651033  RH  026%=      5-min Rain = 0
KPVS 202120Z 22014KT 17/M03 A3004 RMK A01 T01651034  RH  026%=      5-min Rain = 0
KPVS 202125Z 22014G19KT 17/M03 A3004 RMK A01 T01681034  RH  025%=      5-min Rain = 0
KPVS 202130Z 20012KT 17/M03 A3004 RMK A01 T01681031  RH  026%=      5-min Rain = 0
KPVS 202135Z 20010G15KT 17/M03 A3004 RMK A01 T01651028  RH  027%=      5-min Rain = 0
KPVS 202140Z 19010KT 17/M03 A3004 RMK A01 T01681026  RH  027%=      5-min Rain = 0
KPVS 202145Z 19010G15KT 17/M03 A3004 RMK A01 T01711027  RH  026%=      5-min Rain = 0
KPVS 202150Z 20012KT 17/M03 A3004 RMK A01 T01731030  RH  025%=      5-min Rain = 0
KPVS 202155Z 21012G19KT 18/M03 A3004 RMK A01 T01761030  RH  025%=      5-min Rain = 0
KPVS 202200Z 23014G20KT 18/M04 A3004 RMK A01 T01791036  RH  023%=      5-min Rain = 0
KPVS 202205Z 23012G18KT 18/M04 A3004 RMK A01 T01811036  RH  023%=      5-min Rain = 0
KPVS 202210Z 24012G17KT 18/M04 A3003 RMK A01 T01811037  RH  023%=      5-min Rain = 0
KPVS 202215Z 24012G17KT 18/M04 A3003 RMK A01 T01801038  RH  023%=      5-min Rain = 0
KPVS 202220Z 24011G18KT 18/M04 A3003 RMK A01 T01801036  RH  023%=      5-min Rain = 0
KPVS 202225Z 24011G16KT 18/M04 A3003 RMK A01 T01811036  RH  023%=      5-min Rain = 0
KPVS 202230Z 23010G15KT 18/M04 A3003 RMK A01 T01801035  RH  023%=      5-min Rain = 0
KPVS 202235Z 23012G17KT 18/M04 A3003 RMK A01 T01801036  RH  023%=      5-min Rain = 0
KPVS 202240Z 23012G18KT 18/M04 A3003 RMK A01 T01801035  RH  023%=      5-min Rain = 0
KPVS 202245Z 24011KT 18/M03 A3003 RMK A01 T01801033  RH  023%=      5-min Rain = 0
KPVS 202250Z 24011KT 18/M03 A3003 RMK A01 T01801032  RH  024%=      5-min Rain = 0
KPVS 202255Z 24008G13KT 18/M03 A3003 RMK A01 T01791031  RH  024%=      5-min Rain = 0
KPVS 202300Z 24008KT 18/M03 A3003 RMK A01 T01771031  RH  024%=      5-min Rain = 0
KPVS 202305Z 24007KT 18/M03 A3003 RMK A01 T01771029  RH  025%=      5-min Rain = 0
KPVS 202310Z 22010G16KT 18/M03 A3002 RMK A01 T01761032  RH  024%=      5-min Rain = 0
KPVS 202315Z 21012G17KT 17/M04 A3002 RMK A01 T01731039  RH  023%=      5-min Rain = 0
KPVS 202320Z 21014KT 17/M04 A3002 RMK A01 T01691042  RH  024%=      5-min Rain = 0
KPVS 202325Z 21012KT 17/M04 A3002 RMK A01 T01671042  RH  024%=      5-min Rain = 0
KPVS 202330Z 21011KT 16/M04 A3002 RMK A01 T01641043  RH  024%=      5-min Rain = 0
KPVS 202335Z 21010KT 16/M04 A3002 RMK A01 T01601043  RH  025%=      5-min Rain = 0
KPVS 202340Z 20008KT 16/M04 A3002 RMK A01 T01551041  RH  026%=      5-min Rain = 0
KPVS 202345Z 20008KT 15/M04 A3002 RMK A01 T01511041  RH  027%=      5-min Rain = 0
KPVS 202350Z 19009KT 15/M04 A3002 RMK A01 T01471041  RH  027%=      5-min Rain = 0
KPVS 202355Z 18009KT 14/M04 A3002 RMK A01 T01401041  RH  029%=      5-min Rain = 0
KPVS 210000Z 19008KT 13/M04 A3002 RMK A01 T01341041  RH  030%=      5-min Rain = 0
KPVS 210005Z 19009KT 13/M04 A3002 RMK A01 T01281042  RH  031%=      5-min Rain = 0
KPVS 210010Z 19009KT 12/M04 A3002 RMK A01 T01241044  RH  031%=      5-min Rain = 0
KPVS 210015Z 18009KT 12/M05 A3002 RMK A01 T01211045  RH  031%=      5-min Rain = 0
KPVS 210020Z 18010KT 12/M05 A3002 RMK A01 T01181046  RH  032%=      5-min Rain = 0
KPVS 210025Z 18009KT 12/M05 A3002 RMK A01 T01161047  RH  032%=      5-min Rain = 0
KPVS 210030Z 18008KT 12/M05 A3002 RMK A01 T01151048  RH  032%=      5-min Rain = 0
KPVS 210035Z 18008KT 11/M05 A3002 RMK A01 T01131049  RH  032%=      5-min Rain = 0
KPVS 210040Z 18008KT 11/M05 A3002 RMK A01 T01121049  RH  032%=      5-min Rain = 0
KPVS 210045Z 18008KT 11/M05 A3002 RMK A01 T01091050  RH  033%=      5-min Rain = 0
KPVS 210050Z 18008KT 11/M05 A3002 RMK A01 T01061050  RH  033%=      5-min Rain = 0
KPVS 210055Z 18007G12KT 10/M05 A3002 RMK A01 T01021050  RH  034%=      5-min Rain = 0
KPVS 210100Z 18007KT 10/M05 A3002 RMK A01 T01001050  RH  035%=      5-min Rain = 0
KPVS 210105Z 17009G14KT 10/M05 A3002 RMK A01 T00991051  RH  035%=      5-min Rain = 0
KPVS 210110Z 17007KT 10/M05 A3002 RMK A01 T00961050  RH  036%=      5-min Rain = 0
KPVS 210115Z 18008G14KT 09/M05 A3002 RMK A01 T00931051  RH  036%=      5-min Rain = 0
KPVS 210120Z 18008KT 10/M05 A3002 RMK A01 T00961053  RH  035%=      5-min Rain = 0
KPVS 210125Z 17009KT 10/M06 A3002 RMK A01 T00971055  RH  034%=      5-min Rain = 0
KPVS 210130Z 17009KT 09/M06 A3001 RMK A01 T00931055  RH  035%=      5-min Rain = 0
KPVS 210135Z 17009KT 09/M06 A3001 RMK A01 T00901057  RH  035%=      5-min Rain = 0
KPVS 210140Z 17008KT 09/M06 A3001 RMK A01 T00861057  RH  036%=      5-min Rain = 0
KPVS 210145Z 17008G14KT 08/M06 A3001 RMK A01 T00831057  RH  037%=      5-min Rain = 0
KPVS 210150Z 17008KT 08/M06 A3001 RMK A01 T00831058  RH  037%=      5-min Rain = 0
KPVS 210155Z 18009KT 08/M06 A3001 RMK A01 T00841059  RH  036%=      5-min Rain = 0
KPVS 210200Z 17009KT 09/M06 A3001 RMK A01 T00861060  RH  036%=      5-min Rain = 0
KPVS 210205Z 17009KT 09/M06 A3001 RMK A01 T00851060  RH  036%=      5-min Rain = 0
KPVS 210210Z 18009KT 08/M06 A3001 RMK A01 T00821060  RH  037%=      5-min Rain = 0
KPVS 210215Z 18009KT 08/M06 A30 RMK A01 T00801060  RH  037%=      5-min Rain = 0
KPVS 210220Z 18010KT 08/M06 A30 RMK A01 T00781061  RH  037%=      5-min Rain = 0
KPVS 210225Z 18011KT 07/M06 A30 RMK A01 T00731061  RH  038%=      5-min Rain = 0
KPVS 210230Z 19012KT 07/M06 A30 RMK A01 T00721061  RH  039%=      5-min Rain = 0
KPVS 210235Z 18011G16KT 07/M06 A30 RMK A01 T00721061  RH  039%=      5-min Rain = 0
KPVS 210240Z 18012KT 07/M06 A30 RMK A01 T00701061  RH  039%=      5-min Rain = 0
KPVS 210245Z 19012KT 07/M06 A30 RMK A01 T00711061  RH  039%=      5-min Rain = 0
KPVS 210250Z 19012KT 07/M06 A30 RMK A01 T00741061  RH  038%=      5-min Rain = 0
KPVS 210255Z 19011KT 08/M06 A30 RMK A01 T00771061  RH  037%=      5-min Rain = 0
KPVS 210300Z 18011KT 08/M06 A30 RMK A01 T00771062  RH  037%=      5-min Rain = 0
KPVS 210305Z 19011KT 08/M06 A30 RMK A01 T00771061  RH  037%=      5-min Rain = 0
KPVS 210310Z 19010KT 08/M06 A30 RMK A01 T00751061  RH  038%=      5-min Rain = 0
KPVS 210315Z 18010KT 07/M06 A30 RMK A01 T00721060  RH  039%=      5-min Rain = 0
KPVS 210320Z 19009KT 07/M06 A30 RMK A01 T00681060  RH  040%=      5-min Rain = 0
KPVS 210325Z 19008KT 07/M06 A2999 RMK A01 T00651060  RH  041%=      5-min Rain = 0
KPVS 210330Z 19008KT 06/M06 A2999 RMK A01 T00611060  RH  042%=      5-min Rain = 0
KPVS 210335Z 19008KT 06/M06 A2999 RMK A01 T00591060  RH  043%=      5-min Rain = 0
KPVS 210340Z 19009KT 06/M06 A2999 RMK A01 T00571060  RH  043%=      5-min Rain = 0
KPVS 210345Z 19009KT 06/M06 A2999 RMK A01 T00561059  RH  044%=      5-min Rain = 0
KPVS 210350Z 19009KT 05/M06 A2999 RMK A01 T00531059  RH  045%=      5-min Rain = 0
KPVS 210355Z 19008KT 05/M06 A2999 RMK A01 T00501059  RH  046%=      5-min Rain = 0
KPVS 210400Z 19008KT 05/M06 A2998 RMK A01 T00471059  RH  047%=      5-min Rain = 0
KPVS 210405Z 19008KT 05/M06 A2998 RMK A01 T00451058  RH  048%=      5-min Rain = 0
KPVS 210410Z 19008KT 05/M06 A2998 RMK A01 T00451058  RH  048%=      5-min Rain = 0
KPVS 210415Z 19008KT 04/M06 A2998 RMK A01 T00441058  RH  048%=      5-min Rain = 0
KPVS 210420Z 19009KT 04/M06 A2998 RMK A01 T00431058  RH  048%=      5-min Rain = 0
KPVS 210425Z 21007KT 05/M06 A2999 RMK A01 T00461058  RH  048%=      5-min Rain = 0
KPVS 210430Z 21007KT 05/M06 A2998 RMK A01 T00461058  RH  047%=      5-min Rain = 0
KPVS 210435Z 21005KT 04/M06 A2998 RMK A01 T00421059  RH  048%=      5-min Rain = 0
KPVS 210440Z 21006KT 04/M06 A2999 RMK A01 T00381058  RH  050%=      5-min Rain = 0
KPVS 210445Z 20005KT 04/M06 A2999 RMK A01 T00351058  RH  051%=      5-min Rain = 0
KPVS 210450Z 20004KT 03/M06 A2999 RMK A01 T00311058  RH  052%=      5-min Rain = 0
KPVS 210455Z 18006KT 03/M06 A2999 RMK A01 T00281058  RH  054%=      5-min Rain = 0
KPVS 210500Z 20006KT 03/M06 A2999 RMK A01 T00271056  RH  055%=      5-min Rain = 0
KPVS 210505Z 20005KT 03/M06 A2999 RMK A01 T00291056  RH  054%=      5-min Rain = 0
KPVS 210510Z 20007KT 03/M06 A2999 RMK A01 T00321057  RH  053%=      5-min Rain = 0
KPVS 210515Z 20009KT 04/M06 A2999 RMK A01 T00351058  RH  051%=      5-min Rain = 0
KPVS 210520Z 20009KT 03/M06 A2998 RMK A01 T00341058  RH  051%=      5-min Rain = 0
KPVS 210525Z 21009KT 04/M06 A2998 RMK A01 T00351058  RH  051%=      5-min Rain = 0
KPVS 210530Z 21009KT 04/M06 A2998 RMK A01 T00361057  RH  051%=      5-min Rain = 0
KPVS 210535Z 21009KT 04/M05 A2998 RMK A01 T00371054  RH  052%=      5-min Rain = 0
KPVS 210540Z 21011KT 04/M05 A2998 RMK A01 T00401051  RH  052%=      5-min Rain = 0
KPVS 210545Z 21011KT 04/M05 A2998 RMK A01 T00421048  RH  053%=      5-min Rain = 0
KPVS 210550Z 21011KT 05/M05 A2998 RMK A01 T00451045  RH  053%=      5-min Rain = 0
KPVS 210555Z 21010KT 05/M04 A2998 RMK A01 T00471043  RH  053%=      5-min Rain = 0

Page generated in 0.0155 seconds.